Time;durP1;ratioP1;P1;durP2;ratioP2;P2;SDS_P1;SDS_P2;PMS_P1;PMS_P2;Temp;Humidity;BMP_temperature;BMP_pressure;BME280_temperature;BME280_humidity;BME280_pressure;Samples;Min_cycle;Max_cycle;Signal;HPM_P1;HPM_P2
2021/03/31 00:00:37;;;;;;;34.90;20.25;;;;;;;9.00;70.04;101991.70;1713389;83;21672;-77
2021/03/31 00:03:08;;;;;;;48.45;24.35;;;;;;;8.94;70.09;101984.32;1709748;83;21620;-77
2021/03/31 00:05:38;;;;;;;51.77;25.77;;;;;;;8.91;70.17;101988.16;1666969;83;21625;-77
2021/03/31 00:08:06;;;;;;;37.63;20.88;;;;;;;8.85;70.31;101985.50;1694986;83;21233;-77
2021/03/31 00:10:45;;;;;;;40.33;20.57;;;;;;;8.85;70.29;101989.78;1708536;83;21593;-77
2021/03/31 00:13:13;;;;;;;33.85;18.77;;;;;;;8.81;70.21;101986.33;1671144;83;21204;-77
2021/03/31 00:15:50;;;;;;;42.70;23.20;;;;;;;8.75;70.19;101992.70;1673344;83;21696;-77
2021/03/31 00:18:18;;;;;;;40.73;23.42;;;;;;;8.69;70.26;101986.59;1697686;83;22141;-77
2021/03/31 00:20:46;;;;;;;42.08;22.10;;;;;;;8.67;70.31;101993.02;1695606;83;21791;-77
2021/03/31 00:23:14;;;;;;;45.98;24.50;;;;;;;8.65;70.40;101988.26;1714985;83;20966;-77
2021/03/31 00:25:41;;;;;;;43.73;22.27;;;;;;;8.61;70.40;101982.19;1695286;83;21852;-77
2021/03/31 00:28:12;;;;;;;43.17;22.48;;;;;;;8.57;70.43;101982.99;1683700;83;21152;-77
2021/03/31 00:30:42;;;;;;;42.60;22.45;;;;;;;8.55;70.42;101983.81;1681695;83;21478;-77
2021/03/31 00:33:08;;;;;;;46.18;23.52;;;;;;;8.52;70.41;101979.91;1697868;83;21003;-77
2021/03/31 00:35:35;;;;;;;50.90;27.90;;;;;;;8.49;70.41;101987.17;1694126;83;21153;-77
2021/03/31 00:38:06;;;;;;;44.83;23.70;;;;;;;8.45;70.53;101985.39;1714659;83;21021;-77
2021/03/31 00:40:40;;;;;;;42.35;22.35;;;;;;;8.42;70.54;101980.19;1699647;83;21216;-77
2021/03/31 00:43:07;;;;;;;51.40;21.55;;;;;;;8.38;70.58;101982.28;1696730;83;21211;-77
2021/03/31 00:45:34;;;;;;;40.85;21.37;;;;;;;8.36;70.58;101981.39;1691354;83;21692;-77
2021/03/31 00:48:00;;;;;;;39.18;20.50;;;;;;;8.32;70.70;101972.30;1677997;83;21655;-77
2021/03/31 00:50:27;;;;;;;39.10;20.25;;;;;;;8.30;70.73;101971.85;1681094;83;21223;-77
2021/03/31 00:53:18;;;;;;;39.05;18.25;;;;;;;8.28;70.76;101968.80;1674179;83;21538;-76
2021/03/31 00:55:46;;;;;;;35.23;19.02;;;;;;;8.25;70.71;101970.91;1640652;83;21224;-76
2021/03/31 00:58:14;;;;;;;37.80;20.27;;;;;;;8.20;70.66;101971.27;1713176;83;21081;-76
2021/03/31 01:00:41;;;;;;;37.65;21.33;;;;;;;8.17;70.72;101969.06;1685389;83;21531;-76
2021/03/31 01:03:08;;;;;;;33.65;18.50;;;;;;;8.14;70.74;101965.15;1631069;83;21253;-76
2021/03/31 01:05:34;;;;;;;32.13;18.05;;;;;;;8.12;70.80;101961.68;1695623;83;21216;-76
2021/03/31 01:08:03;;;;;;;29.90;18.02;;;;;;;8.10;70.80;101964.23;1691738;83;21200;-76
2021/03/31 01:10:33;;;;;;;;;;;;;;;8.07;70.72;101969.34;1683904;83;21228;-76
2021/03/31 01:13:24;;;;;;;31.10;17.87;;;;;;;8.01;70.86;101964.51;1703488;82;20306;-76
2021/03/31 01:16:27;;;;;;;30.95;17.32;;;;;;;7.95;70.88;101967.84;1679990;83;21212;-76
2021/03/31 01:19:20;;;;;;;30.08;18.37;;;;;;;7.93;70.87;101963.95;1668193;83;21251;-76
2021/03/31 01:22:15;;;;;;;32.85;19.25;;;;;;;7.90;70.89;101961.33;1641828;85;21235;-77
2021/03/31 01:25:07;;;;;;;;;;;;;;;7.86;70.93;101962.13;1649206;85;21230;-77
2021/03/31 01:27:45;;;;;;;36.30;20.90;;;;;;;7.85;71.16;101962.97;1669469;85;20321;-76
2021/03/31 01:30:50;;;;;;;39.03;20.48;;;;;;;7.81;70.98;101968.03;1662128;85;21694;-76
2021/03/31 01:33:46;;;;;;;34.18;17.85;;;;;;;7.74;71.06;101955.51;1651771;85;21238;-76
2021/03/31 01:36:17;;;;;;;33.15;18.82;;;;;;;7.69;71.08;101962.28;1647854;86;21253;-76
2021/03/31 01:38:48;;;;;;;32.98;18.48;;;;;;;7.67;71.07;101967.83;1634247;86;21251;-76
2021/03/31 01:41:17;;;;;;;35.25;19.92;;;;;;;7.62;71.07;101965.59;1628329;86;21229;-76
2021/03/31 01:43:49;;;;;;;36.42;21.40;;;;;;;7.56;71.13;101956.05;1614750;88;22437;-76
2021/03/31 01:46:19;;;;;;;46.53;24.67;;;;;;;7.56;71.21;101951.33;1617832;88;21237;-77
2021/03/31 01:48:47;;;;;;;52.40;27.13;;;;;;;7.57;71.16;101952.64;1612707;88;21274;-77
2021/03/31 01:51:14;;;;;;;44.03;23.65;;;;;;;7.53;71.21;101951.27;1605716;88;21170;-77
2021/03/31 01:53:42;;;;;;;29.50;16.90;;;;;;;7.52;71.26;101948.25;1623643;88;21723;-77
2021/03/31 01:56:09;;;;;;;25.62;16.48;;;;;;;7.51;71.25;101951.66;1619226;85;21238;-77
2021/03/31 01:58:43;;;;;;;27.90;17.42;;;;;;;7.49;71.22;101954.20;1627451;87;21254;-77
2021/03/31 02:01:14;;;;;;;26.57;16.65;;;;;;;7.46;71.19;101959.72;1621297;87;21238;-77
2021/03/31 02:03:42;;;;;;;36.55;21.23;;;;;;;7.42;71.23;101962.66;1615403;87;21300;-77
2021/03/31 02:06:14;;;;;;;55.80;28.87;;;;;;;7.37;71.26;101968.55;1622392;87;21252;-77
2021/03/31 02:08:42;;;;;;;46.95;24.82;;;;;;;7.35;71.41;101960.80;1595286;89;21268;-77
2021/03/31 02:11:10;;;;;;;43.95;24.63;;;;;;;7.34;71.32;101960.77;1623149;87;21150;-77
2021/03/31 02:13:47;;;;;;;54.38;26.62;;;;;;;7.30;71.26;101959.42;1654237;85;20978;-77
2021/03/31 02:16:15;;;;;;;34.00;20.02;;;;;;;7.26;71.31;101953.81;1663823;84;21006;-77
2021/03/31 02:18:42;;;;;;;53.17;26.65;;;;;;;7.22;71.28;101954.59;1660521;85;21589;-77
2021/03/31 02:21:11;;;;;;;52.93;28.50;;;;;;;7.20;71.24;101954.11;1668534;85;21141;-77
2021/03/31 02:23:39;;;;;;;67.58;32.23;;;;;;;7.14;71.20;101956.56;1665922;84;21504;-77
2021/03/31 02:26:05;;;;;;;66.97;34.08;;;;;;;7.05;71.27;101955.09;1672619;85;21152;-77
2021/03/31 02:28:37;;;;;;;57.70;31.23;;;;;;;7.02;71.40;101954.61;1680782;85;21132;-77
2021/03/31 02:31:05;;;;;;;72.97;36.48;;;;;;;6.97;71.48;101949.38;1681660;84;21038;-77
2021/03/31 02:33:33;;;;;;;69.58;33.78;;;;;;;6.96;71.42;101955.77;1663032;84;21136;-77
2021/03/31 02:36:15;;;;;;;76.77;40.10;;;;;;;6.94;71.43;101955.74;1653757;85;21232;-77
2021/03/31 02:38:46;;;;;;;77.72;37.85;;;;;;;6.89;71.43;101953.50;1672646;85;21192;-77
2021/03/31 02:41:13;;;;;;;78.65;40.10;;;;;;;6.84;71.51;101949.09;1680229;84;21199;-76
2021/03/31 02:43:48;;;;;;;60.05;31.50;;;;;;;6.83;71.59;101947.36;1699382;83;21233;-76
2021/03/31 02:46:21;;;;;;;73.15;33.90;;;;;;;6.84;71.67;101945.23;1690193;83;21685;-76
2021/03/31 02:48:51;;;;;;;53.28;27.58;;;;;;;6.84;71.67;101943.95;1701541;83;21261;-77
2021/03/31 02:51:21;;;;;;;54.48;28.47;;;;;;;6.83;71.59;101942.22;1650499;84;21225;-77
2021/03/31 02:53:49;;;;;;;52.27;27.05;;;;;;;6.79;71.62;101942.98;1670497;83;21228;-77
2021/03/31 02:56:17;;;;;;;54.55;28.62;;;;;;;6.76;71.57;101939.94;1690091;83;21215;-77
2021/03/31 02:58:46;;;;;;;46.50;24.63;;;;;;;6.74;71.58;101945.91;1695561;83;21232;-77
2021/03/31 03:01:13;;;;;;;46.53;27.95;;;;;;;6.72;71.67;101942.44;1683549;83;21204;-77
2021/03/31 03:03:40;;;;;;;47.40;24.90;;;;;;;6.71;71.67;101941.99;1709191;83;21196;-77
2021/03/31 03:06:07;;;;;;;54.63;27.45;;;;;;;6.69;71.69;101943.25;1682050;83;21256;-77
2021/03/31 03:08:35;;;;;;;46.45;26.75;;;;;;;6.68;71.76;101944.08;1690827;83;21203;-77
2021/03/31 03:11:04;;;;;;;46.08;26.07;;;;;;;6.68;71.75;101939.36;1713357;83;21237;-77
2021/03/31 03:13:33;;;;;;;46.25;25.55;;;;;;;6.67;71.75;101937.20;1712405;83;21250;-76
2021/03/31 03:16:19;;;;;;;43.55;23.25;;;;;;;6.65;71.74;101935.02;1668557;83;21472;-77
2021/03/31 03:18:45;;;;;;;;;;;;;;;6.63;71.76;101937.56;1707499;83;21217;-77
2021/03/31 03:21:15;;;;;;;42.88;23.75;;;;;;;6.57;71.67;101937.42;1691912;83;20302;-77
2021/03/31 03:23:42;;;;;;;47.25;26.45;;;;;;;6.49;71.66;101936.81;1700232;83;21192;-77
2021/03/31 03:26:15;;;;;;;50.35;27.20;;;;;;;6.46;71.73;101929.03;1699340;83;21188;-77
2021/03/31 03:28:45;;;;;;;52.13;27.77;;;;;;;6.43;71.70;101928.96;1713306;83;21263;-77
2021/03/31 03:31:12;;;;;;;56.28;28.15;;;;;;;6.39;71.72;101922.02;1679624;83;21236;-77
2021/03/31 03:33:39;;;;;;;48.83;27.15;;;;;;;6.35;71.75;101922.78;1698641;83;21207;-77
2021/03/31 03:36:09;;;;;;;45.43;24.05;;;;;;;6.32;71.75;101917.16;1701266;80;615307;-77
2021/03/31 03:38:37;;;;;;;39.75;22.73;;;;;;;6.28;71.71;101916.64;1681628;83;21153;-77
2021/03/31 03:41:11;;;;;;;41.05;23.45;;;;;;;6.23;71.67;101912.72;1667785;84;21744;-77
2021/03/31 03:43:39;;;;;;;42.00;22.37;;;;;;;6.19;71.70;101915.19;1680018;84;21222;-77
2021/03/31 03:46:08;;;;;;;31.82;19.23;;;;;;;6.14;71.74;101909.94;1657378;85;21258;-77
2021/03/31 03:48:46;;;;;;;36.23;20.20;;;;;;;6.12;71.77;101910.73;1655490;85;21485;-77
2021/03/31 03:51:13;;;;;;;32.25;20.08;;;;;;;6.10;71.86;101906.85;1667153;85;21218;-77
2021/03/31 03:53:39;;;;;;;30.35;18.20;;;;;;;6.10;71.82;101911.12;1674123;85;23963;-77
2021/03/31 03:56:20;;;;;;;38.23;18.60;;;;;;;6.04;71.77;101913.12;1649678;85;21212;-77
2021/03/31 03:58:46;;;;;;;35.08;20.50;;;;;;;6.00;71.74;101906.59;1675264;85;21210;-77
2021/03/31 04:01:12;;;;;;;36.35;19.23;;;;;;;5.98;71.82;101905.28;1678700;85;21186;-77
2021/03/31 04:03:42;;;;;;;34.60;19.37;;;;;;;5.96;71.85;101905.66;1657773;84;21251;-77
2021/03/31 04:06:09;;;;;;;33.00;21.25;;;;;;;5.93;71.85;101902.61;1642900;85;21139;-77
2021/03/31 04:08:36;;;;;;;31.42;19.35;;;;;;;5.90;71.87;101899.09;1652678;85;21160;-77
2021/03/31 04:11:05;;;;;;;31.15;18.80;;;;;;;5.88;71.91;101903.30;1652483;85;21161;-77
2021/03/31 04:13:33;;;;;;;30.37;17.65;;;;;;;5.83;71.85;101907.45;1646287;85;21172;-77
2021/03/31 04:16:08;;;;;;;35.75;19.75;;;;;;;5.78;71.82;101902.20;1640759;85;21068;-77
2021/03/31 04:18:36;;;;;;;32.98;19.02;;;;;;;5.76;71.92;101909.41;1652235;85;21176;-77
2021/03/31 04:21:04;;;;;;;34.67;20.40;;;;;;;5.75;72.00;101908.55;1655658;85;21222;-77
2021/03/31 04:23:31;;;;;;;26.60;15.05;;;;;;;5.76;72.06;101911.56;1660639;85;21674;-77
2021/03/31 04:25:58;;;;;;;30.92;17.95;;;;;;;5.76;72.02;101909.00;1649757;85;21251;-77
2021/03/31 04:28:27;;;;;;;34.40;18.17;;;;;;;5.74;72.00;101912.36;1646362;86;21242;-77
2021/03/31 04:31:00;;;;;;;29.40;18.17;;;;;;;5.72;72.06;101907.64;1643919;85;21479;-76
2021/03/31 04:33:27;;;;;;;26.73;16.35;;;;;;;5.68;71.97;101903.26;1635954;85;21577;-76
2021/03/31 04:35:54;;;;;;;;;;;;;;;5.65;72.04;101903.63;1648371;86;21734;-76
2021/03/31 04:38:33;;;;;;;31.33;17.87;;;;;;;5.62;72.11;101900.99;1651717;85;20307;-76
2021/03/31 04:41:02;;;;;;;28.27;15.80;;;;;;;5.59;72.12;101901.33;1650899;85;21255;-76
2021/03/31 04:43:32;;;;;;;27.02;16.42;;;;;;;5.57;72.15;101899.14;1662796;85;21204;-76
2021/03/31 04:46:02;;;;;;;28.02;15.38;;;;;;;5.57;72.20;101896.58;1668731;85;21228;-76
2021/03/31 04:48:28;;;;;;;26.73;16.42;;;;;;;5.55;72.17;101895.25;1686660;84;21283;-76
2021/03/31 04:50:56;;;;;;;31.97;17.77;;;;;;;5.54;72.25;101893.94;1677351;83;21235;-76
2021/03/31 04:53:41;;;;;;;34.18;19.37;;;;;;;5.53;72.29;101899.48;1681935;85;21228;-76
2021/03/31 04:56:07;;;;;;;30.48;16.77;;;;;;;5.54;72.33;101899.93;1677006;85;21483;-76
2021/03/31 04:58:34;;;;;;;29.63;17.27;;;;;;;5.50;72.39;101886.57;1681585;83;21481;-76
2021/03/31 05:01:01;;;;;;;27.37;16.17;;;;;;;5.61;72.45;101893.25;1677459;83;21217;-76
2021/03/31 05:03:28;;;;;;;32.45;17.23;;;;;;;5.67;72.50;101893.41;1678931;83;21661;-76
2021/03/31 05:05:55;;;;;;;35.65;19.60;;;;;;;5.73;72.53;101893.52;1671640;83;21244;-76
2021/03/31 05:08:24;;;;;;;33.20;18.48;;;;;;;5.79;72.54;101896.23;1683725;83;21200;-76
2021/03/31 05:10:50;;;;;;;24.43;16.10;;;;;;;5.86;72.55;101902.39;1681671;83;21480;-76
2021/03/31 05:13:18;;;;;;;30.70;17.98;;;;;;;5.89;72.52;101898.23;1675796;83;21480;-76
2021/03/31 05:15:44;;;;;;;25.23;14.90;;;;;;;5.93;72.51;101901.32;1680913;84;21397;-76
2021/03/31 05:18:11;;;;;;;22.42;14.40;;;;;;;6.01;72.61;101900.22;1677894;84;21578;-76
2021/03/31 05:20:37;;;;;;;23.40;12.25;;;;;;;6.05;72.60;101902.02;1678687;83;21244;-76
2021/03/31 05:23:04;;;;;;;21.33;13.15;;;;;;;6.15;72.72;101901.82;1686580;84;21473;-76
2021/03/31 05:25:30;;;;;;;;;;;;;;;6.28;72.83;101902.10;1685243;83;21240;-76
2021/03/31 05:27:57;;;;;;;21.65;14.63;;;;;;;6.43;72.99;101907.13;1670463;85;20726;-76
2021/03/31 05:30:25;;;;;;;20.00;14.53;;;;;;;6.56;72.92;101897.14;1682300;83;21156;-76
2021/03/31 05:32:52;;;;;;;22.48;14.30;;;;;;;6.77;73.05;101899.26;1687371;85;21120;-77
2021/03/31 05:35:21;;;;;;;30.37;19.77;;;;;;;6.98;72.99;101903.95;1665020;85;21108;-77
2021/03/31 05:37:47;;;;;;;26.00;16.40;;;;;;;7.20;73.01;101896.23;1682807;83;21165;-77
2021/03/31 05:40:14;;;;;;;36.85;22.22;;;;;;;7.38;72.94;101895.25;1667589;85;21490;-77
2021/03/31 05:42:43;;;;;;;31.80;19.98;;;;;;;7.55;72.96;101891.68;1681555;83;21197;-77
2021/03/31 05:45:12;;;;;;;;;;;;;;;7.74;73.01;101892.85;1687172;83;21215;-77
2021/03/31 05:47:42;;;;;;;36.20;19.20;;;;;;;7.91;73.08;101897.81;1680932;83;20308;-77
2021/03/31 05:50:15;;;;;;;30.27;18.07;;;;;;;8.10;73.11;101892.52;1686617;85;21294;-77
2021/03/31 05:52:44;;;;;;;28.50;16.87;;;;;;;8.34;73.10;101887.72;1685339;83;21189;-77
2021/03/31 05:55:17;;;;;;;27.05;16.52;;;;;;;8.59;73.12;101889.78;1679707;82;701342;-77
2021/03/31 05:57:45;;;;;;;31.48;17.52;;;;;;;8.88;73.28;101888.81;1689990;83;21205;-77
2021/03/31 06:00:16;;;;;;;27.22;18.05;;;;;;;9.10;73.19;101887.33;1683824;83;22022;-77
2021/03/31 06:02:44;;;;;;;26.93;17.15;;;;;;;9.26;73.01;101887.06;1677425;83;21218;-77
2021/03/31 06:05:14;;;;;;;25.35;15.40;;;;;;;9.35;73.05;101891.02;1656715;83;21236;-77
2021/03/31 06:07:42;;;;;;;24.63;15.85;;;;;;;9.47;73.15;101882.50;1686785;83;21609;-77
2021/03/31 06:10:15;;;;;;;30.12;16.93;;;;;;;9.71;73.41;101878.83;1684220;83;21233;-78
2021/03/31 06:12:56;;;;;;;28.73;17.25;;;;;;;10.06;73.52;101887.23;1680661;84;21232;-78
2021/03/31 06:15:37;;;;;;;26.00;17.85;;;;;;;10.49;73.70;101878.88;1690243;83;21650;-78
2021/03/31 06:18:13;;;;;;;29.87;19.12;;;;;;;11.02;73.66;101881.19;1689838;84;21196;-78
2021/03/31 06:21:00;;;;;;;29.87;18.20;;;;;;;11.56;73.63;101881.24;1678126;83;21208;-78
2021/03/31 06:23:55;;;;;;;31.23;20.57;;;;;;;12.16;73.44;101870.39;1685175;82;21155;-78
2021/03/31 06:26:34;;;;;;;30.68;18.85;;;;;;;12.85;73.70;101869.67;1687620;83;20979;-78
2021/03/31 06:29:05;;;;;;;27.10;18.02;;;;;;;13.69;73.38;101864.30;1677978;83;21537;-78
2021/03/31 06:31:44;;;;;;;23.83;17.12;;;;;;;14.22;72.99;101870.25;1684354;83;21192;-78
2021/03/31 06:34:23;;;;;;;23.62;16.57;;;;;;;14.78;73.17;101868.72;1684345;83;21015;-78
2021/03/31 06:37:01;;;;;;;27.13;18.87;;;;;;;15.33;72.98;101870.51;1685920;83;20979;-78
2021/03/31 06:39:35;;;;;;;28.17;18.00;;;;;;;15.84;72.65;101875.31;1660567;83;21201;-78
2021/03/31 06:42:14;;;;;;;27.80;19.82;;;;;;;16.22;72.39;101871.97;1683001;83;21216;-78
2021/03/31 06:47:28;;;;;;;29.40;19.92;;;;;;;16.96;72.23;101873.48;1677827;84;21223;-79
2021/03/31 06:49:54;;;;;;;27.48;20.20;;;;;;;17.29;72.00;101869.66;1673361;81;21222;-79
2021/03/31 06:52:23;;;;;;;27.77;19.05;;;;;;;17.52;71.75;101869.52;1707682;82;498973;-79
2021/03/31 06:54:53;;;;;;;26.95;18.95;;;;;;;17.66;71.52;101869.20;1711803;82;21235;-79
2021/03/31 06:57:35;;;;;;;27.27;18.50;;;;;;;17.79;71.50;101871.03;1670192;82;21037;-79
2021/03/31 07:00:11;;;;;;;26.25;19.52;;;;;;;17.90;71.30;101873.38;1708398;82;21073;-79
2021/03/31 07:02:40;;;;;;;30.27;19.75;;;;;;;17.90;71.22;101874.23;1693869;82;21231;-79
2021/03/31 07:05:29;;;;;;;29.40;19.65;;;;;;;17.99;71.19;101872.69;1722781;82;21159;-79
2021/03/31 07:08:16;;;;;;;28.15;19.30;;;;;;;18.09;71.18;101865.44;1697277;82;21220;-79
2021/03/31 07:10:50;;;;;;;28.60;19.12;;;;;;;18.13;71.08;101866.63;1703919;82;21605;-79
2021/03/31 07:13:33;;;;;;;26.17;19.23;;;;;;;18.22;71.07;101869.41;1699875;83;21196;-79
2021/03/31 07:16:03;;;;;;;28.85;19.35;;;;;;;18.24;70.90;101865.44;1702909;83;21455;-78
2021/03/31 07:18:34;;;;;;;30.30;19.40;;;;;;;18.29;70.93;101863.10;1683195;82;21058;-78
2021/03/31 07:21:01;;;;;;;31.30;19.57;;;;;;;18.44;70.98;101869.22;1704162;82;21255;-78
2021/03/31 07:23:28;;;;;;;29.65;18.48;;;;;;;18.57;70.85;101873.66;1699473;83;21547;-78
2021/03/31 07:25:57;;;;;;;23.47;18.40;;;;;;;18.71;70.73;101868.91;1705095;82;21650;-79
2021/03/31 07:28:38;;;;;;;26.37;18.67;;;;;;;18.91;70.74;101870.04;1670840;82;21141;-79
2021/03/31 07:31:04;;;;;;;34.03;17.07;;;;;;;19.06;70.42;101870.87;1704028;82;21116;-79
2021/03/31 07:33:39;;;;;;;26.15;17.45;;;;;;;19.24;70.34;101873.34;1660079;83;21132;-79
2021/03/31 07:36:10;;;;;;;25.90;17.80;;;;;;;19.35;70.12;101873.41;1701353;83;20994;-79
2021/03/31 07:38:40;;;;;;;29.42;19.65;;;;;;;19.44;69.96;101875.73;1695389;82;21446;-79
2021/03/31 07:41:09;;;;;;;25.52;19.45;;;;;;;19.51;69.99;101877.73;1731758;81;21801;-79
2021/03/31 07:43:42;;;;;;;25.88;19.05;;;;;;;19.53;69.74;101877.23;1727414;82;21390;-79
2021/03/31 07:46:31;;;;;;;28.55;17.32;;;;;;;19.66;69.93;101879.00;1714583;81;21026;-78
2021/03/31 07:48:59;;;;;;;22.35;15.80;;;;;;;19.81;69.73;101882.39;1725641;81;21414;-78
2021/03/31 07:51:28;;;;;;;24.43;17.02;;;;;;;19.92;69.54;101873.69;1733831;81;392652;-78
2021/03/31 07:53:59;;;;;;;21.65;16.70;;;;;;;20.00;69.37;101873.42;1738324;82;21213;-78
2021/03/31 07:56:39;;;;;;;27.20;18.55;;;;;;;20.08;69.43;101870.93;1741712;81;21130;-78
2021/03/31 07:59:15;;;;;;;21.95;16.70;;;;;;;20.16;69.26;101870.66;1741557;82;21710;-78
2021/03/31 08:01:52;;;;;;;24.02;18.70;;;;;;;20.24;69.24;101863.36;1729011;81;21657;-78
2021/03/31 08:04:38;;;;;;;26.30;19.48;;;;;;;20.37;69.13;101870.31;1727837;81;21435;-78
2021/03/31 08:07:21;;;;;;;32.35;21.37;;;;;;;20.43;68.85;101866.17;1722387;81;21189;-79
2021/03/31 08:09:49;;;;;;;31.85;19.85;;;;;;;20.52;68.81;101861.03;1750982;80;21637;-78
2021/03/31 08:12:31;;;;;;;27.17;19.00;;;;;;;20.68;68.69;101859.09;1748338;80;21090;-78
2021/03/31 08:14:58;;;;;;;25.35;17.60;;;;;;;20.85;68.48;101863.67;1744414;80;21503;-78
2021/03/31 08:17:25;;;;;;;23.83;15.20;;;;;;;21.07;68.30;101857.97;1684029;81;21642;-78
2021/03/31 08:19:52;;;;;;;23.95;16.25;;;;;;;21.19;68.41;101864.97;1750123;80;22072;-78
2021/03/31 08:22:36;;;;;;;21.12;15.85;;;;;;;21.18;68.51;101856.68;1745238;80;21617;-78
2021/03/31 08:25:22;;;;;;;25.17;16.93;;;;;;;21.09;68.25;101857.91;1744922;80;21649;-78
2021/03/31 08:28:08;;;;;;;22.77;16.65;;;;;;;21.03;68.09;101853.74;1760888;80;21457;-78
2021/03/31 08:30:39;;;;;;;23.90;17.77;;;;;;;21.03;68.17;101851.58;1746456;80;21531;-78
2021/03/31 08:33:06;;;;;;;31.60;21.27;;;;;;;21.05;68.15;101855.86;1751955;80;21119;-78
2021/03/31 08:35:34;;;;;;;24.20;15.63;;;;;;;21.03;67.98;101856.83;1749638;80;21420;-78
2021/03/31 08:38:00;;;;;;;26.30;19.48;;;;;;;20.95;67.90;101851.02;1760099;80;21113;-77
2021/03/31 08:40:32;;;;;;;25.62;20.37;;;;;;;20.87;67.66;101853.09;1740057;80;21301;-77
2021/03/31 08:43:00;;;;;;;35.45;22.20;;;;;;;20.77;67.53;101852.16;1716175;81;21482;-76
2021/03/31 08:45:34;;;;;;;21.80;17.17;;;;;;;20.70;67.37;101842.80;1756970;80;22175;-76
2021/03/31 08:48:01;;;;;;;29.50;20.40;;;;;;;20.70;67.34;101841.94;1759145;80;21389;-76
2021/03/31 08:50:33;;;;;;;31.77;20.55;;;;;;;20.73;67.14;101833.48;1750060;80;21373;-77
2021/03/31 08:53:04;;;;;;;28.75;19.37;;;;;;;20.80;67.05;101836.23;1752887;80;21151;-77
2021/03/31 08:55:43;;;;;;;16.95;12.37;;;;;;;20.90;66.89;101828.84;1708507;81;21475;-77
2021/03/31 08:58:11;;;;;;;12.73;10.25;;;;;;;21.01;66.63;101831.91;1754785;80;21170;-77
2021/03/31 09:00:53;;;;;;;15.63;11.05;;;;;;;21.11;66.47;101825.82;1750002;80;21523;-77
2021/03/31 09:03:20;;;;;;;11.35;8.88;;;;;;;21.29;66.47;101822.94;1749487;80;21154;-77
2021/03/31 09:05:56;;;;;;;11.45;8.73;;;;;;;21.20;66.46;101828.54;1749700;80;21424;-77
2021/03/31 09:08:24;;;;;;;12.45;7.65;;;;;;;21.03;66.27;101824.81;1740843;81;21388;-78
2021/03/31 09:11:01;;;;;;;11.18;6.20;;;;;;;20.85;66.20;101818.11;1750017;80;21286;-77
2021/03/31 09:13:29;;;;;;;9.60;6.80;;;;;;;20.69;65.95;101814.80;1706511;82;21016;-77
2021/03/31 09:16:01;;;;;;;10.53;7.05;;;;;;;20.48;65.49;101808.59;1702724;82;21408;-77
2021/03/31 09:18:27;;;;;;;10.95;7.47;;;;;;;20.32;65.51;101799.55;1675965;83;616459;-77
2021/03/31 09:20:54;;;;;;;13.43;8.53;;;;;;;20.13;65.42;101808.59;1654709;85;21040;-77
2021/03/31 09:23:25;;;;;;;9.60;6.55;;;;;;;20.06;65.34;101804.94;1677861;85;21243;-77
2021/03/31 09:26:02;;;;;;;13.65;8.70;;;;;;;19.96;65.27;101805.72;1676421;85;21635;-77
2021/03/31 09:28:31;;;;;;;9.30;6.45;;;;;;;19.90;65.23;101801.14;1674675;85;22167;-76
2021/03/31 09:31:20;;;;;;;11.08;6.95;;;;;;;19.87;65.02;101799.48;1675229;85;21730;-76
2021/03/31 09:33:52;;;;;;;10.20;6.78;;;;;;;19.83;64.89;101800.05;1641086;85;21453;-77
2021/03/31 09:36:20;;;;;;;12.03;7.75;;;;;;;19.75;64.63;101790.31;1675036;84;21379;-77
2021/03/31 09:38:50;;;;;;;18.55;7.70;;;;;;;19.70;64.61;101794.86;1671792;84;21395;-77
2021/03/31 09:41:17;;;;;;;10.05;6.92;;;;;;;19.71;64.60;101790.47;1671637;84;21140;-77
2021/03/31 09:43:46;;;;;;;;;;;;;;;19.70;64.40;101793.55;1673424;84;21134;-77
2021/03/31 09:46:13;;;;;;;11.50;7.25;;;;;;;19.68;63.82;101790.58;1672827;84;20265;-77
2021/03/31 09:48:39;;;;;;;7.37;6.50;;;;;;;19.60;63.98;101782.97;1657008;85;21147;-77
2021/03/31 09:51:13;;;;;;;9.60;6.80;;;;;;;19.56;63.90;101788.38;1671933;85;21153;-77
2021/03/31 09:53:52;;;;;;;9.53;6.17;;;;;;;19.53;63.91;101789.34;1678460;84;21001;-77
2021/03/31 09:56:19;;;;;;;;;;;;;;;19.52;63.82;101773.66;1680852;84;21152;-77
2021/03/31 09:58:50;;;;;;;10.08;6.37;;;;;;;19.50;63.38;101773.67;1675570;84;20179;-77
2021/03/31 10:01:18;;;;;;;10.98;6.15;;;;;;;19.50;63.58;101780.23;1668017;85;21136;-77
2021/03/31 10:03:46;;;;;;;12.73;6.60;;;;;;;19.51;63.57;101775.42;1674908;84;21129;-77
2021/03/31 10:06:20;;;;;;;10.35;6.15;;;;;;;19.55;63.44;101769.16;1675159;84;20999;-77
2021/03/31 10:08:48;;;;;;;10.60;6.65;;;;;;;19.54;63.24;101764.81;1673791;84;21130;-77
2021/03/31 10:11:35;;;;;;;6.70;5.87;;;;;;;19.56;63.31;101766.94;1656125;85;21134;-77
2021/03/31 10:14:06;;;;;;;13.30;7.78;;;;;;;19.60;63.25;101759.81;1665532;85;21135;-77
2021/03/31 10:16:40;;;;;;;10.43;6.47;;;;;;;19.61;63.07;101750.57;1658819;85;21158;-77
2021/03/31 10:19:08;;;;;;;11.43;6.47;;;;;;;19.60;62.99;101745.37;1672816;85;20997;-77
2021/03/31 10:21:37;;;;;;;12.10;6.92;;;;;;;19.62;62.89;101750.98;1678663;85;21093;-77
2021/03/31 10:24:05;;;;;;;13.43;6.90;;;;;;;19.65;62.79;101743.45;1679194;85;21128;-76
2021/03/31 10:26:36;;;;;;;13.65;7.15;;;;;;;19.66;62.67;101742.08;1677137;85;21171;-77
2021/03/31 10:29:24;;;;;;;8.63;6.35;;;;;;;19.68;62.60;101742.03;1675429;84;21152;-77
2021/03/31 10:31:51;;;;;;;12.80;7.33;;;;;;;19.71;62.63;101730.97;1670445;84;21001;-77
2021/03/31 10:34:44;;;;;;;9.98;7.37;;;;;;;19.75;62.54;101723.38;1663758;84;21148;-77
2021/03/31 10:37:32;;;;;;;12.40;7.37;;;;;;;19.74;62.40;101719.05;1672911;85;21246;-77
2021/03/31 10:50:17;;;;;;;11.90;5.75;;;;;;;19.97;61.73;101708.98;1646095;85;21103;-77
2021/03/31 10:52:57;;;;;;;10.48;5.92;;;;;;;19.97;61.45;101710.75;1678507;84;21126;-77
2021/03/31 10:55:21;;;;;;;7.45;6.10;;;;;;;19.93;61.40;101702.59;1654350;85;21147;-77
2021/03/31 10:57:48;;;;;;;10.50;5.87;;;;;;;19.95;61.49;101706.02;1677401;84;21382;-77
2021/03/31 11:00:15;;;;;;;12.43;5.80;;;;;;;19.98;61.35;101697.56;1678056;84;21520;-77
2021/03/31 11:02:41;;;;;;;7.10;6.40;;;;;;;20.00;61.32;101697.50;1671397;85;21361;-77
2021/03/31 11:05:09;;;;;;;10.00;6.28;;;;;;;20.06;61.12;101694.65;1678489;85;21303;-77
2021/03/31 11:07:45;;;;;;;8.28;6.47;;;;;;;20.08;61.05;101692.36;1666583;84;21139;-77
2021/03/31 11:10:12;;;;;;;8.68;5.92;;;;;;;20.12;60.90;101687.39;1650027;85;21124;-77
2021/03/31 11:12:39;;;;;;;14.47;6.33;;;;;;;20.14;60.77;101689.50;1653263;85;21132;-77
2021/03/31 11:15:16;;;;;;;8.50;4.90;;;;;;;20.18;60.68;101684.98;1645469;86;21152;-77
2021/03/31 11:18:04;;;;;;;6.53;5.60;;;;;;;20.21;60.51;101680.08;1651092;85;21151;-77
2021/03/31 11:25:56;;;;;;;6.95;5.10;;;;;;;20.30;60.12;101670.49;1638933;87;20997;-77
2021/03/31 11:28:23;;;;;;;7.50;5.05;;;;;;;20.35;59.98;101672.48;1605654;86;21150;-77
2021/03/31 11:30:51;;;;;;;9.83;5.28;;;;;;;20.37;59.81;101667.56;1638954;86;21155;-77
2021/03/31 11:33:18;;;;;;;8.23;4.40;;;;;;;20.38;59.82;101660.11;1640751;85;21466;-77
2021/03/31 11:35:47;;;;;;;10.63;6.58;;;;;;;20.45;59.59;101665.97;1627166;86;21136;-77
2021/03/31 11:38:13;;;;;;;10.88;7.28;;;;;;;20.45;59.59;101666.83;1651139;84;21032;-77
2021/03/31 11:40:46;;;;;;;11.63;7.65;;;;;;;20.48;59.75;101660.14;1644761;86;21131;-77
2021/03/31 11:43:15;;;;;;;13.10;8.05;;;;;;;20.54;59.57;101656.86;1645524;86;21959;-77
2021/03/31 11:45:41;;;;;;;11.15;6.50;;;;;;;20.54;59.47;101650.30;1639998;86;21167;-77
2021/03/31 11:48:15;;;;;;;10.05;6.42;;;;;;;20.51;59.43;101644.70;1643989;86;21112;-77
2021/03/31 11:50:42;;;;;;;8.15;5.78;;;;;;;20.51;59.22;101644.70;1625807;86;21199;-77
2021/03/31 11:53:09;;;;;;;6.72;4.67;;;;;;;20.52;59.13;101636.36;1646081;86;21163;-77
2021/03/31 11:55:43;;;;;;;11.85;4.70;;;;;;;20.56;59.07;101631.38;1647356;86;21139;-77